sensor_id;sensor_type;location;lat;lon;timestamp;P1;durP1;ratioP1;P2;durP2;ratioP2
11548;SDS011;61444;59.472;18.306;2023-08-06T00:08:11;6.67;;;4.57;;
11548;SDS011;61444;59.472;18.306;2023-08-06T00:10:19;5.83;;;4.33;;
11548;SDS011;61444;59.472;18.306;2023-08-06T00:12:28;6.77;;;4.63;;
11548;SDS011;61444;59.472;18.306;2023-08-06T00:14:37;6.93;;;4.40;;
11548;SDS011;61444;59.472;18.306;2023-08-06T00:16:45;7.50;;;4.90;;
11548;SDS011;61444;59.472;18.306;2023-08-06T00:18:54;9.37;;;4.97;;
11548;SDS011;61444;59.472;18.306;2023-08-06T00:21:02;8.17;;;4.60;;
11548;SDS011;61444;59.472;18.306;2023-08-06T00:23:12;6.80;;;4.80;;
11548;SDS011;61444;59.472;18.306;2023-08-06T00:25:21;6.90;;;4.33;;
11548;SDS011;61444;59.472;18.306;2023-08-06T00:27:29;8.20;;;4.50;;
11548;SDS011;61444;59.472;18.306;2023-08-06T00:29:38;6.67;;;5.20;;
11548;SDS011;61444;59.472;18.306;2023-08-06T00:31:47;7.50;;;4.80;;
11548;SDS011;61444;59.472;18.306;2023-08-06T00:33:56;8.13;;;4.70;;
11548;SDS011;61444;59.472;18.306;2023-08-06T00:36:05;6.00;;;3.97;;
11548;SDS011;61444;59.472;18.306;2023-08-06T00:38:14;8.90;;;4.57;;
11548;SDS011;61444;59.472;18.306;2023-08-06T00:40:25;9.00;;;4.27;;
11548;SDS011;61444;59.472;18.306;2023-08-06T00:42:36;7.53;;;4.93;;
11548;SDS011;61444;59.472;18.306;2023-08-06T00:44:44;6.53;;;4.93;;
11548;SDS011;61444;59.472;18.306;2023-08-06T00:46:52;8.07;;;4.37;;
11548;SDS011;61444;59.472;18.306;2023-08-06T00:49:01;7.80;;;4.10;;
11548;SDS011;61444;59.472;18.306;2023-08-06T00:51:09;7.90;;;4.93;;
11548;SDS011;61444;59.472;18.306;2023-08-06T00:53:20;10.97;;;5.57;;
11548;SDS011;61444;59.472;18.306;2023-08-06T00:55:28;6.27;;;5.00;;
11548;SDS011;61444;59.472;18.306;2023-08-06T00:57:37;6.50;;;4.70;;
11548;SDS011;61444;59.472;18.306;2023-08-06T00:59:45;6.93;;;4.73;;
11548;SDS011;61444;59.472;18.306;2023-08-06T01:01:57;7.93;;;5.50;;
11548;SDS011;61444;59.472;18.306;2023-08-06T01:04:06;5.80;;;4.60;;
11548;SDS011;61444;59.472;18.306;2023-08-06T01:06:15;8.47;;;4.73;;
11548;SDS011;61444;59.472;18.306;2023-08-06T01:08:30;7.13;;;4.57;;
11548;SDS011;61444;59.472;18.306;2023-08-06T01:10:47;7.67;;;4.90;;
11548;SDS011;61444;59.472;18.306;2023-08-06T01:13:00;6.47;;;4.50;;
11548;SDS011;61444;59.472;18.306;2023-08-06T01:15:11;8.70;;;4.50;;
11548;SDS011;61444;59.472;18.306;2023-08-06T01:17:23;5.27;;;4.23;;
11548;SDS011;61444;59.472;18.306;2023-08-06T01:19:33;7.70;;;5.07;;
11548;SDS011;61444;59.472;18.306;2023-08-06T01:21:43;6.63;;;4.57;;
11548;SDS011;61444;59.472;18.306;2023-08-06T01:23:51;8.10;;;5.07;;
11548;SDS011;61444;59.472;18.306;2023-08-06T01:26:02;6.23;;;4.23;;
11548;SDS011;61444;59.472;18.306;2023-08-06T01:28:15;5.77;;;4.33;;
11548;SDS011;61444;59.472;18.306;2023-08-06T01:30:29;9.03;;;4.33;;
11548;SDS011;61444;59.472;18.306;2023-08-06T01:32:42;7.17;;;4.03;;
11548;SDS011;61444;59.472;18.306;2023-08-06T01:34:51;6.33;;;4.27;;
11548;SDS011;61444;59.472;18.306;2023-08-06T01:37:02;8.33;;;4.93;;
11548;SDS011;61444;59.472;18.306;2023-08-06T01:39:11;7.67;;;4.90;;
11548;SDS011;61444;59.472;18.306;2023-08-06T01:41:20;9.77;;;4.13;;
11548;SDS011;61444;59.472;18.306;2023-08-06T01:43:28;4.17;;;3.70;;
11548;SDS011;61444;59.472;18.306;2023-08-06T01:45:37;6.03;;;4.07;;
11548;SDS011;61444;59.472;18.306;2023-08-06T01:47:46;4.93;;;4.20;;
11548;SDS011;61444;59.472;18.306;2023-08-06T01:49:54;6.17;;;4.20;;
11548;SDS011;61444;59.472;18.306;2023-08-06T01:52:05;7.00;;;4.47;;
11548;SDS011;61444;59.472;18.306;2023-08-06T01:54:13;6.10;;;4.43;;
11548;SDS011;61444;59.472;18.306;2023-08-06T01:56:22;7.13;;;4.67;;
11548;SDS011;61444;59.472;18.306;2023-08-06T01:58:31;6.97;;;4.23;;
11548;SDS011;61444;59.472;18.306;2023-08-06T02:00:40;8.60;;;4.00;;
11548;SDS011;61444;59.472;18.306;2023-08-06T02:02:48;8.13;;;4.60;;
11548;SDS011;61444;59.472;18.306;2023-08-06T02:04:57;5.10;;;4.20;;
11548;SDS011;61444;59.472;18.306;2023-08-06T02:07:07;6.00;;;4.33;;
11548;SDS011;61444;59.472;18.306;2023-08-06T02:09:15;6.30;;;4.37;;
11548;SDS011;61444;59.472;18.306;2023-08-06T02:11:24;5.80;;;4.33;;
11548;SDS011;61444;59.472;18.306;2023-08-06T02:13:33;8.40;;;4.70;;
11548;SDS011;61444;59.472;18.306;2023-08-06T02:15:42;8.57;;;4.53;;
11548;SDS011;61444;59.472;18.306;2023-08-06T02:17:50;6.10;;;4.53;;
11548;SDS011;61444;59.472;18.306;2023-08-06T02:19:59;5.43;;;4.37;;
11548;SDS011;61444;59.472;18.306;2023-08-06T02:22:09;8.67;;;4.63;;
11548;SDS011;61444;59.472;18.306;2023-08-06T02:24:18;6.67;;;4.40;;
11548;SDS011;61444;59.472;18.306;2023-08-06T02:26:26;6.53;;;4.30;;
11548;SDS011;61444;59.472;18.306;2023-08-06T02:28:35;5.07;;;4.20;;
11548;SDS011;61444;59.472;18.306;2023-08-06T02:30:49;9.93;;;4.60;;
11548;SDS011;61444;59.472;18.306;2023-08-06T02:32:57;5.43;;;4.07;;
11548;SDS011;61444;59.472;18.306;2023-08-06T02:35:06;8.13;;;4.67;;
11548;SDS011;61444;59.472;18.306;2023-08-06T02:37:17;6.67;;;4.37;;
11548;SDS011;61444;59.472;18.306;2023-08-06T02:39:26;6.43;;;4.33;;
11548;SDS011;61444;59.472;18.306;2023-08-06T02:41:34;4.83;;;4.13;;
11548;SDS011;61444;59.472;18.306;2023-08-06T02:43:46;7.87;;;4.10;;
11548;SDS011;61444;59.472;18.306;2023-08-06T02:45:56;7.00;;;4.30;;
11548;SDS011;61444;59.472;18.306;2023-08-06T02:48:04;7.97;;;4.27;;
11548;SDS011;61444;59.472;18.306;2023-08-06T02:50:13;6.40;;;4.07;;
11548;SDS011;61444;59.472;18.306;2023-08-06T02:52:23;7.50;;;4.37;;
11548;SDS011;61444;59.472;18.306;2023-08-06T02:54:31;6.23;;;4.47;;
11548;SDS011;61444;59.472;18.306;2023-08-06T02:56:42;7.20;;;4.20;;
11548;SDS011;61444;59.472;18.306;2023-08-06T02:58:52;5.10;;;4.13;;
11548;SDS011;61444;59.472;18.306;2023-08-06T03:01:00;7.90;;;4.43;;
11548;SDS011;61444;59.472;18.306;2023-08-06T03:03:09;6.87;;;4.40;;
11548;SDS011;61444;59.472;18.306;2023-08-06T03:05:18;8.87;;;4.80;;
11548;SDS011;61444;59.472;18.306;2023-08-06T03:07:28;8.97;;;4.20;;
11548;SDS011;61444;59.472;18.306;2023-08-06T03:09:37;7.03;;;4.20;;
11548;SDS011;61444;59.472;18.306;2023-08-06T03:11:45;5.67;;;3.90;;
11548;SDS011;61444;59.472;18.306;2023-08-06T03:13:53;7.23;;;3.90;;
11548;SDS011;61444;59.472;18.306;2023-08-06T03:16:01;4.07;;;3.53;;
11548;SDS011;61444;59.472;18.306;2023-08-06T03:18:12;7.67;;;4.20;;
11548;SDS011;61444;59.472;18.306;2023-08-06T03:20:20;7.40;;;4.37;;
11548;SDS011;61444;59.472;18.306;2023-08-06T03:22:30;8.97;;;4.10;;
11548;SDS011;61444;59.472;18.306;2023-08-06T03:24:39;6.43;;;4.03;;
11548;SDS011;61444;59.472;18.306;2023-08-06T03:26:47;5.23;;;3.90;;
11548;SDS011;61444;59.472;18.306;2023-08-06T03:28:56;4.23;;;3.83;;
11548;SDS011;61444;59.472;18.306;2023-08-06T03:31:03;9.43;;;4.00;;
11548;SDS011;61444;59.472;18.306;2023-08-06T03:33:13;4.60;;;3.60;;
11548;SDS011;61444;59.472;18.306;2023-08-06T03:35:22;8.53;;;3.70;;
11548;SDS011;61444;59.472;18.306;2023-08-06T03:37:32;6.03;;;3.73;;
11548;SDS011;61444;59.472;18.306;2023-08-06T03:39:41;7.90;;;4.37;;
11548;SDS011;61444;59.472;18.306;2023-08-06T03:41:49;6.73;;;4.20;;
11548;SDS011;61444;59.472;18.306;2023-08-06T03:43:58;4.73;;;3.67;;
11548;SDS011;61444;59.472;18.306;2023-08-06T03:46:09;6.80;;;3.87;;
11548;SDS011;61444;59.472;18.306;2023-08-06T03:48:17;6.40;;;4.37;;
11548;SDS011;61444;59.472;18.306;2023-08-06T03:50:26;6.93;;;4.07;;
11548;SDS011;61444;59.472;18.306;2023-08-06T03:52:36;7.03;;;4.03;;
11548;SDS011;61444;59.472;18.306;2023-08-06T03:54:44;6.37;;;4.00;;
11548;SDS011;61444;59.472;18.306;2023-08-06T03:56:53;5.50;;;4.23;;
11548;SDS011;61444;59.472;18.306;2023-08-06T03:59:01;6.20;;;4.03;;
11548;SDS011;61444;59.472;18.306;2023-08-06T04:01:10;7.07;;;4.20;;
11548;SDS011;61444;59.472;18.306;2023-08-06T04:03:19;4.10;;;3.80;;
11548;SDS011;61444;59.472;18.306;2023-08-06T04:05:27;7.67;;;4.23;;
11548;SDS011;61444;59.472;18.306;2023-08-06T04:07:40;7.07;;;4.20;;
11548;SDS011;61444;59.472;18.306;2023-08-06T04:09:52;4.53;;;3.93;;
11548;SDS011;61444;59.472;18.306;2023-08-06T04:12:07;4.87;;;3.83;;
11548;SDS011;61444;59.472;18.306;2023-08-06T04:14:15;4.83;;;4.10;;
11548;SDS011;61444;59.472;18.306;2023-08-06T04:16:24;9.17;;;4.00;;
11548;SDS011;61444;59.472;18.306;2023-08-06T04:18:33;4.43;;;3.70;;
11548;SDS011;61444;59.472;18.306;2023-08-06T04:20:42;6.00;;;3.87;;
11548;SDS011;61444;59.472;18.306;2023-08-06T04:22:54;5.70;;;3.87;;
11548;SDS011;61444;59.472;18.306;2023-08-06T04:25:03;5.97;;;4.37;;
11548;SDS011;61444;59.472;18.306;2023-08-06T04:27:12;5.97;;;4.17;;
11548;SDS011;61444;59.472;18.306;2023-08-06T04:29:21;9.63;;;4.63;;
11548;SDS011;61444;59.472;18.306;2023-08-06T04:31:29;5.60;;;4.23;;
11548;SDS011;61444;59.472;18.306;2023-08-06T04:33:38;6.97;;;5.40;;
11548;SDS011;61444;59.472;18.306;2023-08-06T04:35:46;5.97;;;5.07;;
11548;SDS011;61444;59.472;18.306;2023-08-06T04:37:56;7.60;;;5.23;;
11548;SDS011;61444;59.472;18.306;2023-08-06T04:40:05;8.43;;;5.10;;
11548;SDS011;61444;59.472;18.306;2023-08-06T04:42:16;5.60;;;4.50;;
11548;SDS011;61444;59.472;18.306;2023-08-06T04:44:25;6.67;;;4.80;;
11548;SDS011;61444;59.472;18.306;2023-08-06T04:46:33;6.30;;;4.87;;
11548;SDS011;61444;59.472;18.306;2023-08-06T04:48:42;9.43;;;5.03;;
11548;SDS011;61444;59.472;18.306;2023-08-06T04:50:51;8.87;;;4.70;;
11548;SDS011;61444;59.472;18.306;2023-08-06T04:53:04;9.10;;;4.73;;
11548;SDS011;61444;59.472;18.306;2023-08-06T04:55:12;8.07;;;4.53;;
11548;SDS011;61444;59.472;18.306;2023-08-06T04:57:20;8.40;;;5.67;;
11548;SDS011;61444;59.472;18.306;2023-08-06T04:59:29;7.43;;;4.47;;
11548;SDS011;61444;59.472;18.306;2023-08-06T05:01:38;6.73;;;4.80;;
11548;SDS011;61444;59.472;18.306;2023-08-06T05:03:46;8.10;;;5.20;;
11548;SDS011;61444;59.472;18.306;2023-08-06T05:05:55;5.87;;;4.67;;
11548;SDS011;61444;59.472;18.306;2023-08-06T05:08:05;5.13;;;4.63;;
11548;SDS011;61444;59.472;18.306;2023-08-06T05:10:13;7.57;;;4.73;;
11548;SDS011;61444;59.472;18.306;2023-08-06T05:12:22;6.27;;;4.70;;
11548;SDS011;61444;59.472;18.306;2023-08-06T05:14:30;6.77;;;5.10;;
11548;SDS011;61444;59.472;18.306;2023-08-06T05:16:41;5.73;;;5.10;;
11548;SDS011;61444;59.472;18.306;2023-08-06T05:18:50;6.30;;;4.83;;
11548;SDS011;61444;59.472;18.306;2023-08-06T05:20:58;5.13;;;4.57;;
11548;SDS011;61444;59.472;18.306;2023-08-06T05:23:07;6.93;;;4.57;;
11548;SDS011;61444;59.472;18.306;2023-08-06T05:25:17;6.47;;;4.67;;
11548;SDS011;61444;59.472;18.306;2023-08-06T05:27:28;8.70;;;4.97;;
11548;SDS011;61444;59.472;18.306;2023-08-06T05:29:36;7.20;;;4.87;;
11548;SDS011;61444;59.472;18.306;2023-08-06T05:31:45;8.70;;;4.80;;
11548;SDS011;61444;59.472;18.306;2023-08-06T05:33:56;7.57;;;4.93;;
11548;SDS011;61444;59.472;18.306;2023-08-06T05:36:04;6.43;;;5.10;;
11548;SDS011;61444;59.472;18.306;2023-08-06T05:38:16;6.60;;;4.60;;
11548;SDS011;61444;59.472;18.306;2023-08-06T05:40:24;7.00;;;4.83;;
11548;SDS011;61444;59.472;18.306;2023-08-06T05:42:33;8.70;;;4.77;;
11548;SDS011;61444;59.472;18.306;2023-08-06T05:44:42;10.00;;;5.20;;
11548;SDS011;61444;59.472;18.306;2023-08-06T05:46:50;5.90;;;4.87;;
11548;SDS011;61444;59.472;18.306;2023-08-06T05:48:59;6.90;;;5.13;;
11548;SDS011;61444;59.472;18.306;2023-08-06T05:51:08;5.00;;;4.50;;
11548;SDS011;61444;59.472;18.306;2023-08-06T05:53:20;6.60;;;4.57;;
11548;SDS011;61444;59.472;18.306;2023-08-06T05:55:29;5.20;;;4.40;;
11548;SDS011;61444;59.472;18.306;2023-08-06T05:57:38;8.23;;;4.20;;
11548;SDS011;61444;59.472;18.306;2023-08-06T05:59:47;5.10;;;4.60;;
11548;SDS011;61444;59.472;18.306;2023-08-06T06:01:55;7.30;;;4.40;;
11548;SDS011;61444;59.472;18.306;2023-08-06T06:04:04;4.87;;;4.20;;
11548;SDS011;61444;59.472;18.306;2023-08-06T06:06:13;4.97;;;4.10;;
11548;SDS011;61444;59.472;18.306;2023-08-06T06:08:24;7.17;;;4.30;;
11548;SDS011;61444;59.472;18.306;2023-08-06T06:10:32;7.00;;;4.30;;
11548;SDS011;61444;59.472;18.306;2023-08-06T06:12:41;4.97;;;3.93;;
11548;SDS011;61444;59.472;18.306;2023-08-06T06:14:49;6.47;;;4.23;;
11548;SDS011;61444;59.472;18.306;2023-08-06T06:16:58;4.93;;;3.87;;
11548;SDS011;61444;59.472;18.306;2023-08-06T06:19:07;5.00;;;4.17;;
11548;SDS011;61444;59.472;18.306;2023-08-06T06:21:16;4.00;;;3.70;;
11548;SDS011;61444;59.472;18.306;2023-08-06T06:23:28;6.07;;;4.00;;
11548;SDS011;61444;59.472;18.306;2023-08-06T06:25:41;4.77;;;4.30;;
11548;SDS011;61444;59.472;18.306;2023-08-06T06:27:50;4.90;;;4.50;;
11548;SDS011;61444;59.472;18.306;2023-08-06T06:29:58;6.60;;;4.60;;
11548;SDS011;61444;59.472;18.306;2023-08-06T06:32:07;5.70;;;4.30;;
11548;SDS011;61444;59.472;18.306;2023-08-06T06:34:15;5.00;;;4.60;;
11548;SDS011;61444;59.472;18.306;2023-08-06T06:36:24;5.30;;;4.80;;
11548;SDS011;61444;59.472;18.306;2023-08-06T06:38:34;4.80;;;4.40;;
11548;SDS011;61444;59.472;18.306;2023-08-06T06:40:43;5.97;;;5.00;;
11548;SDS011;61444;59.472;18.306;2023-08-06T06:42:53;5.00;;;4.50;;
11548;SDS011;61444;59.472;18.306;2023-08-06T06:45:02;6.67;;;4.70;;
11548;SDS011;61444;59.472;18.306;2023-08-06T06:47:11;6.47;;;4.20;;
11548;SDS011;61444;59.472;18.306;2023-08-06T06:49:19;5.97;;;4.33;;
11548;SDS011;61444;59.472;18.306;2023-08-06T06:51:28;4.93;;;4.43;;
11548;SDS011;61444;59.472;18.306;2023-08-06T06:53:40;5.47;;;4.57;;
11548;SDS011;61444;59.472;18.306;2023-08-06T06:55:49;4.60;;;4.20;;
11548;SDS011;61444;59.472;18.306;2023-08-06T06:57:57;5.13;;;4.30;;
11548;SDS011;61444;59.472;18.306;2023-08-06T07:00:07;5.07;;;4.10;;
11548;SDS011;61444;59.472;18.306;2023-08-06T07:02:16;6.53;;;4.10;;
11548;SDS011;61444;59.472;18.306;2023-08-06T07:04:25;6.50;;;4.13;;
11548;SDS011;61444;59.472;18.306;2023-08-06T07:06:34;5.33;;;3.90;;
11548;SDS011;61444;59.472;18.306;2023-08-06T07:08:46;7.63;;;3.90;;
11548;SDS011;61444;59.472;18.306;2023-08-06T07:11:02;5.27;;;3.87;;
11548;SDS011;61444;59.472;18.306;2023-08-06T07:13:10;5.97;;;3.83;;
11548;SDS011;61444;59.472;18.306;2023-08-06T07:15:19;6.37;;;4.10;;
11548;SDS011;61444;59.472;18.306;2023-08-06T07:17:28;5.17;;;4.13;;
11548;SDS011;61444;59.472;18.306;2023-08-06T07:19:37;4.83;;;4.10;;
11548;SDS011;61444;59.472;18.306;2023-08-06T07:21:46;4.93;;;3.90;;
11548;SDS011;61444;59.472;18.306;2023-08-06T07:23:56;4.83;;;4.40;;
11548;SDS011;61444;59.472;18.306;2023-08-06T07:26:05;4.50;;;4.10;;
11548;SDS011;61444;59.472;18.306;2023-08-06T07:28:15;6.17;;;3.80;;
11548;SDS011;61444;59.472;18.306;2023-08-06T07:30:24;8.83;;;4.20;;
11548;SDS011;61444;59.472;18.306;2023-08-06T07:32:33;6.73;;;3.80;;
11548;SDS011;61444;59.472;18.306;2023-08-06T07:34:42;6.10;;;3.23;;
11548;SDS011;61444;59.472;18.306;2023-08-06T07:36:50;4.43;;;3.23;;
11548;SDS011;61444;59.472;18.306;2023-08-06T07:39:00;7.93;;;3.90;;
11548;SDS011;61444;59.472;18.306;2023-08-06T07:41:11;4.77;;;3.23;;
11548;SDS011;61444;59.472;18.306;2023-08-06T07:43:19;5.93;;;2.93;;
11548;SDS011;61444;59.472;18.306;2023-08-06T07:45:31;6.33;;;3.43;;
11548;SDS011;61444;59.472;18.306;2023-08-06T07:47:40;5.47;;;3.17;;
11548;SDS011;61444;59.472;18.306;2023-08-06T07:49:49;5.47;;;3.53;;
11548;SDS011;61444;59.472;18.306;2023-08-06T07:51:58;8.37;;;3.57;;
11548;SDS011;61444;59.472;18.306;2023-08-06T07:54:08;7.60;;;3.50;;
11548;SDS011;61444;59.472;18.306;2023-08-06T07:56:17;5.13;;;3.43;;
11548;SDS011;61444;59.472;18.306;2023-08-06T07:58:26;6.00;;;3.53;;
11548;SDS011;61444;59.472;18.306;2023-08-06T08:00:36;5.57;;;3.50;;
11548;SDS011;61444;59.472;18.306;2023-08-06T08:02:45;6.67;;;3.30;;
11548;SDS011;61444;59.472;18.306;2023-08-06T08:04:55;6.67;;;3.63;;
11548;SDS011;61444;59.472;18.306;2023-08-06T08:07:03;8.50;;;3.57;;
11548;SDS011;61444;59.472;18.306;2023-08-06T08:09:14;11.40;;;3.93;;
11548;SDS011;61444;59.472;18.306;2023-08-06T08:11:22;20.13;;;4.17;;
11548;SDS011;61444;59.472;18.306;2023-08-06T08:13:37;6.27;;;3.10;;
11548;SDS011;61444;59.472;18.306;2023-08-06T08:15:46;8.87;;;3.40;;
11548;SDS011;61444;59.472;18.306;2023-08-06T08:17:55;5.10;;;3.67;;
11548;SDS011;61444;59.472;18.306;2023-08-06T08:20:05;7.27;;;3.53;;
11548;SDS011;61444;59.472;18.306;2023-08-06T08:22:14;13.00;;;4.03;;
11548;SDS011;61444;59.472;18.306;2023-08-06T08:24:24;6.20;;;4.33;;
11548;SDS011;61444;59.472;18.306;2023-08-06T08:26:33;8.13;;;3.80;;
11548;SDS011;61444;59.472;18.306;2023-08-06T08:28:44;6.93;;;3.97;;
11548;SDS011;61444;59.472;18.306;2023-08-06T08:30:53;4.97;;;3.83;;
11548;SDS011;61444;59.472;18.306;2023-08-06T08:33:02;4.13;;;3.40;;
11548;SDS011;61444;59.472;18.306;2023-08-06T08:35:11;5.00;;;3.63;;
11548;SDS011;61444;59.472;18.306;2023-08-06T08:37:20;7.77;;;4.07;;
11548;SDS011;61444;59.472;18.306;2023-08-06T08:39:30;7.50;;;4.27;;
11548;SDS011;61444;59.472;18.306;2023-08-06T08:41:39;5.23;;;4.10;;
11548;SDS011;61444;59.472;18.306;2023-08-06T08:43:47;5.70;;;4.33;;
11548;SDS011;61444;59.472;18.306;2023-08-06T08:45:57;8.30;;;4.10;;
11548;SDS011;61444;59.472;18.306;2023-08-06T08:48:06;6.03;;;4.27;;
11548;SDS011;61444;59.472;18.306;2023-08-06T08:50:15;11.93;;;4.80;;
11548;SDS011;61444;59.472;18.306;2023-08-06T08:52:26;12.80;;;4.57;;
11548;SDS011;61444;59.472;18.306;2023-08-06T08:54:41;13.10;;;4.13;;
11548;SDS011;61444;59.472;18.306;2023-08-06T08:56:49;12.37;;;4.30;;
11548;SDS011;61444;59.472;18.306;2023-08-06T08:58:58;6.57;;;4.03;;
11548;SDS011;61444;59.472;18.306;2023-08-06T09:01:10;7.73;;;3.77;;
11548;SDS011;61444;59.472;18.306;2023-08-06T09:03:19;7.33;;;4.03;;
11548;SDS011;61444;59.472;18.306;2023-08-06T09:05:30;7.47;;;4.17;;
11548;SDS011;61444;59.472;18.306;2023-08-06T09:07:41;5.47;;;3.70;;
11548;SDS011;61444;59.472;18.306;2023-08-06T09:09:52;7.73;;;3.67;;
11548;SDS011;61444;59.472;18.306;2023-08-06T09:12:01;22.17;;;4.50;;
11548;SDS011;61444;59.472;18.306;2023-08-06T09:14:12;9.60;;;4.10;;
11548;SDS011;61444;59.472;18.306;2023-08-06T09:16:25;6.03;;;3.60;;
11548;SDS011;61444;59.472;18.306;2023-08-06T09:18:34;6.10;;;4.17;;
11548;SDS011;61444;59.472;18.306;2023-08-06T09:20:42;7.10;;;3.60;;
11548;SDS011;61444;59.472;18.306;2023-08-06T09:22:52;4.30;;;3.83;;
11548;SDS011;61444;59.472;18.306;2023-08-06T09:25:02;7.10;;;3.53;;
11548;SDS011;61444;59.472;18.306;2023-08-06T09:27:16;7.60;;;3.93;;
11548;SDS011;61444;59.472;18.306;2023-08-06T09:29:25;6.37;;;3.60;;
11548;SDS011;61444;59.472;18.306;2023-08-06T09:31:40;10.77;;;3.90;;
11548;SDS011;61444;59.472;18.306;2023-08-06T09:33:48;5.30;;;3.90;;
11548;SDS011;61444;59.472;18.306;2023-08-06T09:35:56;5.40;;;3.80;;
11548;SDS011;61444;59.472;18.306;2023-08-06T09:38:06;6.90;;;3.70;;
11548;SDS011;61444;59.472;18.306;2023-08-06T09:40:27;6.07;;;3.30;;
11548;SDS011;61444;59.472;18.306;2023-08-06T09:42:36;4.33;;;3.37;;
11548;SDS011;61444;59.472;18.306;2023-08-06T09:44:45;10.70;;;3.57;;
11548;SDS011;61444;59.472;18.306;2023-08-06T09:46:54;4.17;;;3.20;;
11548;SDS011;61444;59.472;18.306;2023-08-06T09:49:02;5.67;;;3.30;;
11548;SDS011;61444;59.472;18.306;2023-08-06T09:51:14;5.43;;;3.10;;
11548;SDS011;61444;59.472;18.306;2023-08-06T09:53:23;7.00;;;3.40;;
11548;SDS011;61444;59.472;18.306;2023-08-06T09:55:34;7.30;;;3.70;;
11548;SDS011;61444;59.472;18.306;2023-08-06T09:57:42;4.77;;;3.20;;
11548;SDS011;61444;59.472;18.306;2023-08-06T09:59:51;6.33;;;3.77;;
11548;SDS011;61444;59.472;18.306;2023-08-06T10:02:00;6.93;;;3.87;;
11548;SDS011;61444;59.472;18.306;2023-08-06T10:04:09;4.73;;;3.87;;
11548;SDS011;61444;59.472;18.306;2023-08-06T10:06:29;4.93;;;3.63;;
11548;SDS011;61444;59.472;18.306;2023-08-06T10:08:38;5.77;;;4.20;;
11548;SDS011;61444;59.472;18.306;2023-08-06T10:10:50;4.70;;;4.27;;
11548;SDS011;61444;59.472;18.306;2023-08-06T10:13:00;6.70;;;4.37;;
11548;SDS011;61444;59.472;18.306;2023-08-06T10:15:09;7.23;;;5.20;;
11548;SDS011;61444;59.472;18.306;2023-08-06T10:17:19;5.73;;;4.73;;
11548;SDS011;61444;59.472;18.306;2023-08-06T10:19:29;8.30;;;4.60;;
11548;SDS011;61444;59.472;18.306;2023-08-06T10:21:39;6.30;;;4.70;;
11548;SDS011;61444;59.472;18.306;2023-08-06T10:23:49;5.83;;;5.10;;
11548;SDS011;61444;59.472;18.306;2023-08-06T10:26:03;5.83;;;4.63;;
11548;SDS011;61444;59.472;18.306;2023-08-06T10:28:12;6.50;;;5.17;;
11548;SDS011;61444;59.472;18.306;2023-08-06T10:30:22;6.47;;;5.13;;
11548;SDS011;61444;59.472;18.306;2023-08-06T10:32:46;7.90;;;4.97;;
11548;SDS011;61444;59.472;18.306;2023-08-06T10:34:58;8.33;;;5.13;;
11548;SDS011;61444;59.472;18.306;2023-08-06T10:37:09;5.83;;;4.93;;
11548;SDS011;61444;59.472;18.306;2023-08-06T10:39:17;9.00;;;5.07;;
11548;SDS011;61444;59.472;18.306;2023-08-06T10:41:38;5.67;;;5.00;;
11548;SDS011;61444;59.472;18.306;2023-08-06T10:43:50;6.13;;;4.87;;
11548;SDS011;61444;59.472;18.306;2023-08-06T10:45:59;7.27;;;5.00;;
11548;SDS011;61444;59.472;18.306;2023-08-06T10:48:08;5.70;;;4.97;;
11548;SDS011;61444;59.472;18.306;2023-08-06T10:50:17;5.80;;;4.90;;
11548;SDS011;61444;59.472;18.306;2023-08-06T10:52:26;7.13;;;4.60;;
11548;SDS011;61444;59.472;18.306;2023-08-06T10:54:35;7.53;;;4.70;;
11548;SDS011;61444;59.472;18.306;2023-08-06T10:56:45;7.27;;;4.80;;
11548;SDS011;61444;59.472;18.306;2023-08-06T10:58:54;9.27;;;4.80;;
11548;SDS011;61444;59.472;18.306;2023-08-06T11:01:03;9.10;;;4.93;;
11548;SDS011;61444;59.472;18.306;2023-08-06T11:03:11;6.77;;;4.73;;
11548;SDS011;61444;59.472;18.306;2023-08-06T11:05:20;7.47;;;4.47;;
11548;SDS011;61444;59.472;18.306;2023-08-06T11:07:29;6.60;;;4.70;;
11548;SDS011;61444;59.472;18.306;2023-08-06T11:09:39;6.43;;;4.80;;
11548;SDS011;61444;59.472;18.306;2023-08-06T11:11:49;6.83;;;4.90;;
11548;SDS011;61444;59.472;18.306;2023-08-06T11:13:58;5.67;;;4.30;;
11548;SDS011;61444;59.472;18.306;2023-08-06T11:16:06;6.87;;;4.80;;
11548;SDS011;61444;59.472;18.306;2023-08-06T11:18:16;6.27;;;4.50;;
11548;SDS011;61444;59.472;18.306;2023-08-06T11:20:25;8.77;;;5.10;;
11548;SDS011;61444;59.472;18.306;2023-08-06T11:22:35;6.53;;;5.10;;
11548;SDS011;61444;59.472;18.306;2023-08-06T11:24:44;6.93;;;5.20;;
11548;SDS011;61444;59.472;18.306;2023-08-06T11:26:54;7.70;;;4.80;;
11548;SDS011;61444;59.472;18.306;2023-08-06T11:29:03;6.33;;;5.17;;
11548;SDS011;61444;59.472;18.306;2023-08-06T11:31:18;5.37;;;4.43;;
11548;SDS011;61444;59.472;18.306;2023-08-06T11:33:27;9.37;;;5.60;;
11548;SDS011;61444;59.472;18.306;2023-08-06T11:35:35;7.40;;;5.70;;
11548;SDS011;61444;59.472;18.306;2023-08-06T11:37:44;8.47;;;5.53;;
11548;SDS011;61444;59.472;18.306;2023-08-06T11:39:53;6.23;;;5.10;;
11548;SDS011;61444;59.472;18.306;2023-08-06T11:42:04;8.07;;;5.50;;
11548;SDS011;61444;59.472;18.306;2023-08-06T11:44:12;6.10;;;5.50;;
11548;SDS011;61444;59.472;18.306;2023-08-06T11:46:23;7.57;;;5.60;;
11548;SDS011;61444;59.472;18.306;2023-08-06T11:48:32;7.20;;;5.20;;
11548;SDS011;61444;59.472;18.306;2023-08-06T11:50:41;6.47;;;5.77;;
11548;SDS011;61444;59.472;18.306;2023-08-06T11:52:52;9.30;;;5.57;;
11548;SDS011;61444;59.472;18.306;2023-08-06T11:55:02;5.90;;;4.93;;
11548;SDS011;61444;59.472;18.306;2023-08-06T11:57:15;9.97;;;5.60;;
11548;SDS011;61444;59.472;18.306;2023-08-06T11:59:23;7.10;;;5.43;;
11548;SDS011;61444;59.472;18.306;2023-08-06T12:01:35;6.67;;;5.40;;
11548;SDS011;61444;59.472;18.306;2023-08-06T12:03:44;8.27;;;5.33;;
11548;SDS011;61444;59.472;18.306;2023-08-06T12:05:53;8.03;;;5.70;;
11548;SDS011;61444;59.472;18.306;2023-08-06T12:08:02;8.33;;;5.80;;
11548;SDS011;61444;59.472;18.306;2023-08-06T12:10:11;9.63;;;5.47;;
11548;SDS011;61444;59.472;18.306;2023-08-06T12:12:22;8.93;;;5.57;;
11548;SDS011;61444;59.472;18.306;2023-08-06T12:14:30;8.73;;;5.93;;
11548;SDS011;61444;59.472;18.306;2023-08-06T12:16:39;8.93;;;5.37;;
11548;SDS011;61444;59.472;18.306;2023-08-06T12:18:50;10.13;;;5.90;;
11548;SDS011;61444;59.472;18.306;2023-08-06T12:20:59;8.67;;;5.47;;
11548;SDS011;61444;59.472;18.306;2023-08-06T12:23:07;6.83;;;5.63;;
11548;SDS011;61444;59.472;18.306;2023-08-06T12:25:16;12.37;;;6.43;;
11548;SDS011;61444;59.472;18.306;2023-08-06T12:27:26;8.30;;;6.43;;
11548;SDS011;61444;59.472;18.306;2023-08-06T12:29:35;9.20;;;5.90;;
11548;SDS011;61444;59.472;18.306;2023-08-06T12:31:46;8.07;;;6.13;;
11548;SDS011;61444;59.472;18.306;2023-08-06T12:33:54;9.43;;;5.93;;
11548;SDS011;61444;59.472;18.306;2023-08-06T12:36:03;9.20;;;5.40;;
11548;SDS011;61444;59.472;18.306;2023-08-06T12:38:12;7.40;;;5.83;;
11548;SDS011;61444;59.472;18.306;2023-08-06T12:40:21;8.77;;;5.60;;
11548;SDS011;61444;59.472;18.306;2023-08-06T12:42:43;8.67;;;5.93;;
11548;SDS011;61444;59.472;18.306;2023-08-06T12:44:52;9.47;;;6.27;;
11548;SDS011;61444;59.472;18.306;2023-08-06T12:47:01;8.13;;;5.63;;
11548;SDS011;61444;59.472;18.306;2023-08-06T12:49:09;6.93;;;5.70;;
11548;SDS011;61444;59.472;18.306;2023-08-06T12:51:18;6.70;;;5.50;;
11548;SDS011;61444;59.472;18.306;2023-08-06T12:53:26;8.37;;;6.17;;
11548;SDS011;61444;59.472;18.306;2023-08-06T12:55:35;6.83;;;5.80;;